Time;durP1;ratioP1;P1;durP2;ratioP2;P2;SDS_P1;SDS_P2;PMS_P1;PMS_P2;Temp;Humidity;BMP_temperature;BMP_pressure;BME280_temperature;BME280_humidity;BME280_pressure;Samples;Min_cycle;Max_cycle;Signal;HPM_P1;HPM_P2
2022/10/27 00:00:45;;;;;;;5.27;1.97;;;16.80;95.00;;;;;;5018851;28;20491;-69
2022/10/27 00:03:12;;;;;;;5.83;1.83;;;16.70;94.80;;;;;;5018749;28;20466;-68
2022/10/27 00:05:39;;;;;;;5.80;2.70;;;16.70;94.70;;;;;;5018581;28;20451;-68
2022/10/27 00:08:07;;;;;;;6.30;2.33;;;16.70;94.60;;;;;;5017080;28;20451;-69
2022/10/27 00:10:34;;;;;;;5.83;2.27;;;16.70;94.60;;;;;;5018487;28;20436;-69
2022/10/27 00:13:01;;;;;;;5.00;2.00;;;16.60;94.50;;;;;;5017042;28;20476;-68
2022/10/27 00:15:27;;;;;;;4.20;2.30;;;16.60;94.50;;;;;;5017831;28;20961;-69
2022/10/27 00:17:54;;;;;;;4.70;2.20;;;16.60;94.50;;;;;;5017751;28;20444;-68
2022/10/27 00:20:21;;;;;;;6.43;2.40;;;16.60;94.40;;;;;;5017436;28;20447;-69
2022/10/27 00:22:47;;;;;;;6.93;2.77;;;16.60;94.40;;;;;;5017915;28;20476;-69
2022/10/27 00:25:16;;;;;;;5.37;2.63;;;16.60;94.40;;;;;;5017767;28;20443;-69
2022/10/27 00:27:43;;;;;;;4.13;2.60;;;16.50;94.30;;;;;;5017956;28;20455;-69
2022/10/27 00:30:10;;;;;;;6.20;2.13;;;16.50;94.40;;;;;;5018185;28;20447;-69
2022/10/27 00:32:37;;;;;;;3.50;2.20;;;16.50;94.50;;;;;;5017054;28;20471;-69
2022/10/27 00:35:04;;;;;;;4.70;2.33;;;16.50;94.60;;;;;;5017364;28;20432;-68
2022/10/27 00:37:31;;;;;;;2.80;2.03;;;16.50;94.60;;;;;;5016232;28;20883;-68
2022/10/27 00:39:58;;;;;;;7.37;2.37;;;16.50;94.60;;;;;;5017348;28;20451;-68
2022/10/27 00:42:26;;;;;;;9.70;2.23;;;16.50;94.50;;;;;;5017111;28;20491;-69
2022/10/27 00:44:52;;;;;;;4.67;1.70;;;16.40;94.50;;;;;;5017053;28;20463;-69
2022/10/27 00:47:22;;;;;;;6.70;2.90;;;16.50;94.60;;;;;;5016920;28;20494;-68
2022/10/27 00:49:53;;;;;;;4.77;2.30;;;16.40;94.60;;;;;;5016388;28;20466;-68
2022/10/27 00:52:27;;;;;;;3.60;2.60;;;16.40;94.60;;;;;;5016585;28;20471;-69
2022/10/27 00:54:56;;;;;;;5.53;2.67;;;16.40;94.60;;;;;;5016941;28;20938;-69
2022/10/27 00:57:24;;;;;;;4.20;2.03;;;16.40;95.00;;;;;;5016993;28;20456;-69
2022/10/27 00:59:52;;;;;;;5.33;2.20;;;16.30;94.60;;;;;;5016352;28;20439;-68
2022/10/27 01:02:19;;;;;;;8.63;2.10;;;16.30;94.70;;;;;;5015883;28;20860;-68
2022/10/27 01:04:51;;;;;;;6.37;1.90;;;16.30;94.60;;;;;;5015788;28;20845;-68
2022/10/27 01:07:19;;;;;;;6.13;2.27;;;16.30;94.60;;;;;;5015978;28;20447;-68
2022/10/27 01:09:46;;;;;;;2.73;2.43;;;16.30;94.70;;;;;;5016242;28;20458;-68
2022/10/27 01:12:13;;;;;;;5.73;2.53;;;16.30;94.70;;;;;;5015596;28;20470;-68
2022/10/27 01:14:40;;;;;;;4.03;2.10;;;16.30;94.90;;;;;;5015149;28;20447;-68
2022/10/27 01:17:21;;;;;;;5.23;2.50;;;16.30;94.90;;;;;;5015028;28;20448;-68
2022/10/27 01:20:08;;;;;;;6.27;1.93;;;16.20;94.80;;;;;;5015153;28;20436;-68
2022/10/27 01:22:41;;;;;;;6.30;2.20;;;16.20;94.70;;;;;;5015744;28;20514;-68
2022/10/27 01:25:31;;;;;;;6.87;2.33;;;16.20;94.70;;;;;;5016311;28;20915;-68
2022/10/27 01:28:32;;;;;;;4.00;2.83;;;16.20;94.60;;;;;;5014924;28;20447;-68
2022/10/27 01:31:07;;;;;;;6.63;3.00;;;16.10;94.60;;;;;;5011780;28;20459;-68
2022/10/27 01:33:40;;;;;;;5.23;2.20;;;16.10;94.50;;;;;;5014281;28;20487;-68
2022/10/27 01:36:13;;;;;;;4.43;2.40;;;16.10;94.50;;;;;;5014328;28;20922;-68
2022/10/27 01:38:48;;;;;;;6.97;2.47;;;16.10;94.60;;;;;;5014484;28;20424;-68
2022/10/27 01:41:20;;;;;;;7.93;3.20;;;16.10;94.60;;;;;;5014232;28;20474;-68
2022/10/27 01:43:52;;;;;;;5.80;2.53;;;16.00;94.60;;;;;;5014358;28;20471;-68
2022/10/27 01:46:20;;;;;;;8.87;2.67;;;16.00;94.80;;;;;;5014268;28;20459;-68
2022/10/27 01:48:47;;;;;;;3.00;2.30;;;16.00;94.80;;;;;;5014039;28;20459;-68
2022/10/27 01:51:14;;;;;;;5.23;2.30;;;16.00;94.80;;;;;;5014811;28;20485;-68
2022/10/27 01:53:45;;;;;;;9.80;2.97;;;16.00;94.80;;;;;;5014125;28;20475;-68
2022/10/27 01:56:38;;;;;;;7.10;2.83;;;16.00;94.80;;;;;;5013882;28;20439;-68
2022/10/27 01:59:29;;;;;;;6.93;2.73;;;16.00;94.70;;;;;;5013579;28;20439;-67
2022/10/27 02:02:10;;;;;;;4.97;2.50;;;15.90;94.60;;;;;;5013881;28;20498;-68
2022/10/27 02:04:45;;;;;;;6.03;2.30;;;15.90;94.50;;;;;;5013747;28;20946;-68
2022/10/27 02:07:23;;;;;;;8.30;3.23;;;15.80;94.40;;;;;;5013984;28;20436;-68
2022/10/27 02:09:55;;;;;;;4.33;2.67;;;15.80;94.30;;;;;;5013783;28;20923;-68
2022/10/27 02:12:27;;;;;;;3.40;2.47;;;15.80;94.30;;;;;;5013424;28;21001;-68
2022/10/27 02:14:56;;;;;;;4.67;2.37;;;15.80;94.30;;;;;;5014735;28;20436;-68
2022/10/27 02:17:27;;;;;;;7.67;3.10;;;15.80;94.30;;;;;;5013476;28;20447;-67
2022/10/27 02:19:56;;;;;;;6.63;3.03;;;15.70;94.40;;;;;;5014703;28;20488;-67
2022/10/27 02:22:25;;;;;;;4.90;2.47;;;15.70;94.50;;;;;;5015025;28;20503;-67
2022/10/27 02:24:52;;;;;;;8.47;3.07;;;15.70;94.70;;;;;;5015100;28;20455;-67
2022/10/27 02:27:27;;;;;;;6.03;2.80;;;15.70;94.90;;;;;;5014582;28;20455;-67
2022/10/27 02:29:57;;;;;;;4.07;3.30;;;15.70;95.10;;;;;;5014382;28;20428;-67
2022/10/27 02:32:29;;;;;;;5.40;2.47;;;15.60;95.30;;;;;;5014237;28;20471;-67
2022/10/27 02:34:57;;;;;;;9.00;3.93;;;15.60;95.50;;;;;;5016230;28;20977;-67
2022/10/27 02:37:28;;;;;;;10.37;3.30;;;15.60;95.60;;;;;;5018962;28;20456;-68
2022/10/27 02:39:55;;;;;;;7.57;3.33;;;15.60;95.70;;;;;;5018520;28;20431;-67
2022/10/27 02:42:21;;;;;;;7.60;4.00;;;15.60;95.80;;;;;;5017804;28;20518;-67
2022/10/27 02:44:48;;;;;;;4.37;3.13;;;15.60;95.80;;;;;;5018191;28;20447;-67
2022/10/27 02:47:15;;;;;;;5.77;3.57;;;15.60;95.90;;;;;;5018523;28;20470;-68
2022/10/27 02:49:43;;;;;;;9.10;4.90;;;15.60;96.00;;;;;;5017550;28;20451;-67
2022/10/27 02:52:10;;;;;;;5.93;3.90;;;15.60;95.90;;;;;;5017753;28;21040;-67
2022/10/27 02:54:37;;;;;;;5.80;3.80;;;15.60;96.00;;;;;;5017486;28;20432;-68
2022/10/27 02:57:04;;;;;;;7.17;4.37;;;15.60;96.30;;;;;;5017462;28;20974;-68
2022/10/27 02:59:31;;;;;;;7.80;5.03;;;15.60;96.00;;;;;;5018121;28;20455;-68
2022/10/27 03:01:57;;;;;;;11.00;5.50;;;15.60;96.10;;;;;;5016794;28;20494;-68
2022/10/27 03:04:24;;;;;;;6.13;4.90;;;15.60;96.20;;;;;;5016995;28;20451;-68
2022/10/27 03:06:52;;;;;;;10.37;5.60;;;15.60;96.20;;;;;;5017263;28;20455;-68
2022/10/27 03:09:20;;;;;;;12.70;6.57;;;15.60;96.30;;;;;;5017093;28;20462;-68
2022/10/27 03:11:46;;;;;;;7.30;6.07;;;15.60;96.30;;;;;;5017299;28;20531;-68
2022/10/27 03:14:13;;;;;;;8.17;5.60;;;15.60;96.30;;;;;;5017650;28;20447;-68
2022/10/27 03:16:40;;;;;;;9.80;5.13;;;15.50;96.30;;;;;;5017705;28;20455;-67
2022/10/27 03:19:06;;;;;;;13.13;6.67;;;15.50;96.30;;;;;;5016836;28;20482;-67
2022/10/27 03:21:33;;;;;;;11.57;6.90;;;15.60;96.40;;;;;;5016603;28;20875;-67
2022/10/27 03:24:01;;;;;;;13.00;6.93;;;15.50;96.30;;;;;;5017035;28;20439;-68
2022/10/27 03:26:28;;;;;;;14.23;8.20;;;15.50;96.40;;;;;;5016525;28;20451;-68
2022/10/27 03:28:55;;;;;;;11.00;7.07;;;15.50;96.40;;;;;;5016699;28;20447;-68
2022/10/27 03:31:22;;;;;;;10.50;7.33;;;15.50;96.50;;;;;;5016417;28;20455;-68
2022/10/27 03:33:48;;;;;;;11.07;7.90;;;15.50;96.60;;;;;;5016110;28;21018;-68
2022/10/27 03:36:16;;;;;;;10.40;6.63;;;15.50;96.60;;;;;;5016586;28;20443;-68
2022/10/27 03:38:43;;;;;;;12.13;7.70;;;15.50;96.60;;;;;;5016445;28;20447;-68
2022/10/27 03:41:11;;;;;;;15.33;7.63;;;15.50;96.70;;;;;;5016686;28;20466;-68
2022/10/27 03:43:37;;;;;;;11.57;7.50;;;15.50;96.70;;;;;;5016354;28;20494;-68
2022/10/27 03:46:04;;;;;;;9.30;6.70;;;15.50;96.70;;;;;;5015504;28;20452;-68
2022/10/27 03:48:31;;;;;;;12.17;8.20;;;15.50;96.70;;;;;;5016690;28;20455;-68
2022/10/27 03:50:58;;;;;;;12.00;8.13;;;15.50;96.80;;;;;;5016347;28;20470;-68
2022/10/27 03:53:24;;;;;;;11.13;7.40;;;15.50;96.80;;;;;;5016310;28;20482;-68
2022/10/27 03:55:51;;;;;;;11.40;6.73;;;15.50;96.70;;;;;;5016078;28;20452;-68
2022/10/27 03:58:19;;;;;;;8.10;6.80;;;15.50;96.60;;;;;;5016152;28;20455;-68
2022/10/27 04:00:46;;;;;;;13.37;7.23;;;15.50;96.60;;;;;;5016042;28;20443;-68
2022/10/27 04:03:13;;;;;;;9.83;5.80;;;15.40;96.50;;;;;;5015919;28;20546;-68
2022/10/27 04:05:40;;;;;;;10.47;6.47;;;15.40;96.60;;;;;;5016222;28;20443;-67
2022/10/27 04:08:06;;;;;;;10.50;5.70;;;15.40;96.60;;;;;;5015558;28;20950;-68
2022/10/27 04:10:33;;;;;;;16.03;6.70;;;15.40;96.70;;;;;;5015701;28;20452;-68
2022/10/27 04:13:00;;;;;;;10.77;6.23;;;15.40;96.80;;;;;;5015681;28;20529;-68
2022/10/27 04:15:29;;;;;;;10.00;6.00;;;15.40;96.90;;;;;;5015491;28;20439;-68
2022/10/27 04:17:57;;;;;;;14.03;6.47;;;15.40;96.80;;;;;;5015662;28;20450;-68
2022/10/27 04:20:24;;;;;;;7.97;5.97;;;15.40;96.70;;;;;;5015578;28;20459;-68
2022/10/27 04:22:51;;;;;;;9.60;5.70;;;15.40;96.60;;;;;;5015148;28;20491;-67
2022/10/27 04:25:18;;;;;;;7.67;5.67;;;15.30;96.50;;;;;;5015431;28;20448;-67
2022/10/27 04:27:44;;;;;;;7.40;5.63;;;15.30;96.50;;;;;;5015507;28;20486;-67
2022/10/27 04:30:12;;;;;;;7.23;5.50;;;15.30;96.40;;;;;;5015605;28;20451;-68
2022/10/27 04:32:40;;;;;;;8.50;5.30;;;15.30;96.50;;;;;;5015711;28;20483;-68
2022/10/27 04:35:07;;;;;;;17.03;6.37;;;15.30;96.60;;;;;;5015842;28;20439;-68
2022/10/27 04:37:35;;;;;;;9.40;6.17;;;15.30;96.70;;;;;;5015692;28;20486;-68
2022/10/27 04:40:02;;;;;;;9.70;4.83;;;15.30;96.70;;;;;;5015486;28;20460;-68
2022/10/27 04:42:29;;;;;;;7.10;5.00;;;15.20;96.70;;;;;;5015237;28;20495;-68
2022/10/27 04:44:56;;;;;;;16.23;4.60;;;15.30;96.80;;;;;;5015220;28;20455;-68
2022/10/27 04:47:22;;;;;;;9.00;5.03;;;15.20;96.80;;;;;;5015587;28;20459;-68
2022/10/27 04:49:50;;;;;;;8.93;4.40;;;15.20;96.80;;;;;;5015297;28;20451;-68
2022/10/27 04:52:17;;;;;;;10.37;5.20;;;15.20;96.80;;;;;;5014801;28;20978;-68
2022/10/27 04:54:44;;;;;;;10.77;4.47;;;15.20;96.80;;;;;;5014975;28;20458;-68
2022/10/27 04:57:13;;;;;;;6.80;4.57;;;15.20;96.90;;;;;;5014971;28;20490;-68
2022/10/27 04:59:40;;;;;;;9.50;4.40;;;15.20;96.90;;;;;;5015144;28;20451;-67
2022/10/27 05:02:07;;;;;;;7.10;4.27;;;15.20;96.90;;;;;;5015200;28;20621;-68
2022/10/27 05:04:34;;;;;;;8.30;4.40;;;15.20;96.90;;;;;;5014783;28;20467;-68
2022/10/27 05:07:02;;;;;;;5.63;3.83;;;15.20;96.90;;;;;;5014955;28;20455;-68
2022/10/27 05:09:29;;;;;;;6.77;3.47;;;15.20;96.90;;;;;;5014765;28;20458;-68
2022/10/27 05:11:56;;;;;;;8.33;4.10;;;15.20;96.90;;;;;;5014691;28;20471;-68
2022/10/27 05:14:22;;;;;;;4.40;3.63;;;15.10;96.80;;;;;;5014558;28;20446;-68
2022/10/27 05:16:49;;;;;;;8.27;3.60;;;15.10;96.80;;;;;;5014386;28;20818;-68
2022/10/27 05:19:16;;;;;;;5.13;3.27;;;15.10;96.80;;;;;;5014434;28;20455;-68
2022/10/27 05:21:42;;;;;;;5.00;3.70;;;15.10;96.90;;;;;;5014508;28;20539;-68
2022/10/27 05:24:10;;;;;;;9.20;4.70;;;15.10;97.00;;;;;;5014126;28;20861;-67
2022/10/27 05:26:37;;;;;;;5.47;3.57;;;15.10;97.00;;;;;;5014698;28;20455;-67
2022/10/27 05:29:04;;;;;;;6.37;3.63;;;15.10;97.10;;;;;;5014845;28;20839;-67
2022/10/27 05:31:31;;;;;;;8.80;4.17;;;15.10;97.10;;;;;;5014636;28;20454;-67
2022/10/27 05:33:57;;;;;;;6.27;3.70;;;15.10;97.10;;;;;;5014336;28;20454;-67
2022/10/27 05:36:24;;;;;;;5.60;3.70;;;15.10;97.10;;;;;;5014071;28;20950;-67
2022/10/27 05:38:51;;;;;;;4.73;3.40;;;15.10;97.20;;;;;;5014507;28;20457;-67
2022/10/27 05:41:19;;;;;;;6.97;3.57;;;15.10;97.20;;;;;;5014113;28;20803;-68
2022/10/27 05:43:49;;;;;;;7.40;3.60;;;15.10;97.10;;;;;;5014300;28;20496;-68
2022/10/27 05:46:15;;;;;;;6.53;3.50;;;15.00;97.00;;;;;;5014179;28;20455;-68
2022/10/27 05:48:42;;;;;;;6.27;3.63;;;15.00;96.90;;;;;;5014420;28;20447;-68
2022/10/27 05:51:09;;;;;;;9.00;4.23;;;15.00;96.80;;;;;;5014046;28;20454;-68
2022/10/27 05:53:35;;;;;;;6.43;3.67;;;15.00;96.70;;;;;;5014273;28;20467;-67
2022/10/27 05:56:02;;;;;;;9.83;3.80;;;14.90;96.60;;;;;;5014277;28;20861;-68
2022/10/27 05:58:30;;;;;;;5.40;3.60;;;14.90;96.50;;;;;;5013945;28;20973;-68
2022/10/27 06:00:59;;;;;;;5.90;3.23;;;14.90;96.50;;;;;;5014065;28;20451;-68
2022/10/27 06:03:26;;;;;;;7.83;3.53;;;14.90;96.50;;;;;;5013690;28;20525;-68
2022/10/27 06:05:54;;;;;;;4.83;3.00;;;14.90;96.50;;;;;;5014111;28;20464;-68
2022/10/27 06:08:21;;;;;;;7.47;2.80;;;14.80;96.50;;;;;;5013752;28;20463;-68
2022/10/27 06:10:48;;;;;;;3.40;2.93;;;14.80;96.60;;;;;;5013450;28;20838;-68
2022/10/27 06:13:15;;;;;;;3.20;2.90;;;14.80;96.60;;;;;;5013648;28;21025;-68
2022/10/27 06:15:43;;;;;;;6.10;3.33;;;14.80;96.70;;;;;;5013678;28;20459;-67
2022/10/27 06:18:09;;;;;;;4.17;3.07;;;14.80;96.90;;;;;;5013424;28;20461;-67
2022/10/27 06:20:36;;;;;;;4.60;3.40;;;14.80;97.10;;;;;;5013939;28;20442;-67
2022/10/27 06:23:03;;;;;;;6.00;2.80;;;14.80;97.20;;;;;;5013937;28;20882;-67
2022/10/27 06:25:30;;;;;;;5.93;2.83;;;14.80;97.40;;;;;;5014500;28;20452;-67
2022/10/27 06:27:57;;;;;;;7.00;3.30;;;14.80;97.60;;;;;;5013439;28;20440;-67
2022/10/27 06:30:23;;;;;;;6.00;2.70;;;14.80;97.80;;;;;;5013466;28;20459;-67
2022/10/27 06:32:51;;;;;;;6.00;2.83;;;14.80;97.90;;;;;;5013471;28;20479;-67
2022/10/27 06:35:18;;;;;;;6.03;3.00;;;14.80;98.00;;;;;;5013535;28;20454;-67
2022/10/27 06:37:46;;;;;;;5.10;3.20;;;14.90;98.20;;;;;;5013383;28;20458;-67
2022/10/27 06:40:13;;;;;;;6.27;3.00;;;14.90;98.30;;;;;;5014393;28;20482;-67
2022/10/27 06:42:40;;;;;;;6.80;3.10;;;14.90;98.30;;;;;;5013477;28;20495;-67
2022/10/27 06:45:08;;;;;;;6.07;3.50;;;14.90;98.40;;;;;;5013585;28;20455;-67
2022/10/27 06:47:35;;;;;;;4.97;2.93;;;14.90;98.40;;;;;;5013868;28;20447;-67
2022/10/27 06:50:03;;;;;;;6.50;3.43;;;14.90;98.40;;;;;;5013485;28;20875;-67
2022/10/27 06:52:30;;;;;;;6.40;4.00;;;14.90;98.40;;;;;;5013733;28;20471;-67
2022/10/27 06:54:57;;;;;;;8.23;3.10;;;15.00;98.50;;;;;;5013436;28;20455;-67
2022/10/27 06:57:23;;;;;;;5.43;3.50;;;15.00;98.50;;;;;;5013412;28;20459;-67
2022/10/27 06:59:50;;;;;;;5.53;3.07;;;15.00;98.50;;;;;;5013519;28;20458;-67
2022/10/27 07:02:17;;;;;;;2.80;2.60;;;15.10;98.50;;;;;;5014144;28;20463;-67
2022/10/27 07:04:43;;;;;;;6.80;2.80;;;15.10;98.50;;;;;;5013523;28;20448;-67
2022/10/27 07:07:11;;;;;;;5.57;3.30;;;15.10;98.50;;;;;;5013353;28;20830;-67
2022/10/27 07:09:39;;;;;;;3.00;2.37;;;15.10;98.40;;;;;;5013655;28;20487;-67
2022/10/27 07:12:06;;;;;;;6.40;2.97;;;15.20;98.40;;;;;;5013405;28;20467;-67
2022/10/27 07:14:33;;;;;;;4.30;2.90;;;15.20;98.40;;;;;;5013323;28;20864;-67
2022/10/27 07:16:59;;;;;;;6.30;2.87;;;15.20;98.40;;;;;;5013893;28;20448;-67
2022/10/27 07:19:26;;;;;;;4.73;2.70;;;15.30;98.40;;;;;;5014146;28;20451;-67
2022/10/27 07:21:53;;;;;;;6.23;3.00;;;15.30;98.30;;;;;;5015217;28;20470;-67
2022/10/27 07:24:21;;;;;;;7.70;2.60;;;15.40;98.30;;;;;;5017557;28;20475;-67
2022/10/27 07:26:47;;;;;;;5.20;2.70;;;15.40;98.30;;;;;;5017372;28;20450;-67
2022/10/27 07:29:14;;;;;;;5.37;3.30;;;15.40;98.40;;;;;;5017622;28;20454;-67
2022/10/27 07:31:44;;;;;;;4.83;2.90;;;15.40;98.40;;;;;;5017672;28;20943;-67
2022/10/27 07:34:10;;;;;;;3.37;2.53;;;15.40;98.30;;;;;;5017627;28;20478;-67
2022/10/27 07:36:37;;;;;;;3.03;2.43;;;15.40;98.30;;;;;;5017550;28;20456;-68
2022/10/27 07:39:04;;;;;;;10.27;2.93;;;15.50;98.30;;;;;;5018297;28;20436;-68
2022/10/27 07:41:32;;;;;;;6.70;2.93;;;15.50;98.40;;;;;;5018626;28;20934;-67
2022/10/27 07:43:59;;;;;;;6.70;3.00;;;15.50;98.40;;;;;;5018466;28;20514;-68
2022/10/27 07:46:26;;;;;;;8.17;2.93;;;15.50;98.40;;;;;;5018827;28;20462;-67
2022/10/27 07:48:52;;;;;;;5.40;2.90;;;15.50;98.80;;;;;;5020203;28;20454;-67
2022/10/27 07:51:19;;;;;;;6.70;2.60;;;15.50;98.50;;;;;;5019495;28;20436;-67
2022/10/27 07:53:46;;;;;;;3.57;2.27;;;15.60;98.50;;;;;;5018715;28;20471;-67
2022/10/27 07:56:12;;;;;;;8.20;2.43;;;15.60;98.50;;;;;;5020948;28;20424;-67
2022/10/27 07:58:40;;;;;;;2.80;2.20;;;15.70;98.50;;;;;;5021652;28;20466;-68
2022/10/27 08:01:08;;;;;;;4.23;2.50;;;15.70;98.30;;;;;;5021198;28;20436;-67
2022/10/27 08:03:34;;;;;;;10.50;2.73;;;15.70;98.20;;;;;;5021344;28;20499;-67
2022/10/27 08:06:02;;;;;;;6.97;2.77;;;15.80;98.20;;;;;;5021237;28;20451;-66
2022/10/27 08:08:29;;;;;;;5.37;3.00;;;15.80;98.10;;;;;;5021624;28;20447;-67
2022/10/27 08:10:56;;;;;;;6.90;2.87;;;15.90;98.10;;;;;;5020784;28;20447;-67
2022/10/27 08:13:23;;;;;;;4.13;2.80;;;15.90;98.00;;;;;;5020881;28;20474;-67
2022/10/27 08:15:51;;;;;;;5.93;2.63;;;16.00;97.80;;;;;;5022084;28;20460;-67
2022/10/27 08:18:18;;;;;;;4.00;2.47;;;16.00;97.60;;;;;;5022194;28;20459;-67
2022/10/27 08:20:47;;;;;;;6.17;2.70;;;16.10;97.60;;;;;;5021733;28;20444;-67
2022/10/27 08:23:15;;;;;;;4.27;2.47;;;16.10;97.50;;;;;;5019443;28;20492;-67
2022/10/27 08:25:43;;;;;;;3.77;2.30;;;16.20;97.50;;;;;;5021427;28;20453;-67
2022/10/27 08:28:10;;;;;;;2.60;2.33;;;16.30;97.40;;;;;;5021299;28;20543;-67
2022/10/27 08:30:37;;;;;;;4.63;2.50;;;16.30;97.40;;;;;;5027432;28;20435;-67
2022/10/27 08:33:06;;;;;;;3.50;1.93;;;16.40;97.40;;;;;;5034894;28;20486;-67
2022/10/27 08:35:33;;;;;;;2.63;2.37;;;16.40;97.30;;;;;;5035306;28;20444;-67
2022/10/27 08:38:01;;;;;;;8.03;2.70;;;16.50;97.20;;;;;;5036116;28;20431;-67
2022/10/27 08:40:35;;;;;;;14.80;2.53;;;16.50;97.10;;;;;;5037066;28;20438;-67
2022/10/27 08:43:14;;;;;;;5.57;3.00;;;16.60;97.20;;;;;;5036728;28;20471;-67
2022/10/27 08:45:49;;;;;;;8.40;3.20;;;16.60;97.10;;;;;;5034605;28;20938;-67
2022/10/27 08:48:22;;;;;;;3.50;2.50;;;16.70;97.10;;;;;;5033774;28;20439;-67
2022/10/27 08:50:49;;;;;;;9.30;3.20;;;16.80;97.10;;;;;;5032224;28;20440;-67
2022/10/27 08:53:22;;;;;;;4.90;2.40;;;16.90;97.00;;;;;;5033634;28;20463;-67
2022/10/27 08:55:52;;;;;;;3.90;2.40;;;16.90;96.90;;;;;;5035408;28;20432;-67
2022/10/27 08:58:31;;;;;;;5.73;2.80;;;17.00;96.60;;;;;;5036740;28;20411;-67
2022/10/27 09:01:02;;;;;;;5.10;3.30;;;17.00;96.50;;;;;;5029972;28;20427;-67
2022/10/27 09:04:05;;;;;;;6.60;2.87;;;17.10;96.50;;;;;;5021780;28;20491;-68
2022/10/27 09:06:38;;;;;;;17.30;2.90;;;17.20;96.10;;;;;;5021651;28;20451;-67
2022/10/27 09:09:13;;;;;;;3.20;2.37;;;17.20;96.00;;;;;;5018864;28;20436;-67
2022/10/27 09:11:49;;;;;;;4.03;2.33;;;17.30;96.00;;;;;;5014606;28;20458;-67
2022/10/27 09:14:30;;;;;;;4.10;2.67;;;17.40;95.80;;;;;;5014478;28;20442;-67
2022/10/27 09:17:01;;;;;;;7.73;2.67;;;17.50;95.70;;;;;;5014394;28;20443;-67
2022/10/27 09:19:35;;;;;;;5.40;3.00;;;17.50;95.50;;;;;;5014294;28;20439;-67
2022/10/27 09:22:05;;;;;;;4.97;2.50;;;17.60;95.50;;;;;;5014377;28;20476;-68
2022/10/27 09:24:37;;;;;;;5.10;2.20;;;17.70;95.30;;;;;;5014199;28;20467;-68
2022/10/27 09:27:04;;;;;;;3.00;2.67;;;17.80;95.10;;;;;;5014193;28;20451;-67
2022/10/27 09:29:35;;;;;;;3.57;2.67;;;17.90;95.10;;;;;;5014160;28;20455;-67
2022/10/27 09:32:07;;;;;;;4.23;2.23;;;18.00;95.00;;;;;;5014104;28;20574;-68
2022/10/27 09:34:42;;;;;;;6.10;2.40;;;18.10;94.90;;;;;;5013802;28;20459;-68
2022/10/27 09:37:13;;;;;;;4.00;1.97;;;18.20;94.70;;;;;;5014166;28;20435;-68
2022/10/27 09:39:43;;;;;;;4.07;2.73;;;18.40;94.60;;;;;;5013768;28;20989;-68
2022/10/27 09:42:10;;;;;;;7.63;2.60;;;18.50;94.40;;;;;;5013597;28;20991;-68
2022/10/27 09:44:37;;;;;;;7.07;2.40;;;18.60;93.70;;;;;;5012902;28;20982;-68
2022/10/27 09:47:04;;;;;;;6.90;2.70;;;18.80;93.40;;;;;;5013849;28;20463;-68
2022/10/27 09:49:37;;;;;;;3.53;2.17;;;18.90;93.40;;;;;;5013798;28;20451;-68
2022/10/27 09:52:11;;;;;;;5.60;3.07;;;19.10;93.20;;;;;;5013897;28;20475;-68
2022/10/27 09:54:41;;;;;;;8.20;2.33;;;19.20;92.90;;;;;;5014019;28;20487;-68
2022/10/27 09:57:14;;;;;;;3.53;1.93;;;19.30;92.40;;;;;;5013896;28;20435;-69
2022/10/27 09:59:41;;;;;;;4.50;2.10;;;19.40;91.80;;;;;;5013724;28;20442;-69
2022/10/27 10:02:24;;;;;;;3.00;2.30;;;19.50;91.50;;;;;;5014256;28;20982;-68
2022/10/27 10:04:52;;;;;;;5.47;1.60;;;19.60;91.20;;;;;;5013534;28;20986;-68
2022/10/27 10:07:34;;;;;;;9.30;2.47;;;19.70;91.50;;;;;;5013724;28;20451;-69
2022/10/27 10:10:07;;;;;;;3.43;1.83;;;19.80;91.00;;;;;;5013677;28;20476;-69
2022/10/27 10:12:33;;;;;;;8.87;2.50;;;20.00;90.90;;;;;;5013354;28;20978;-69
2022/10/27 10:15:19;;;;;;;4.77;2.07;;;20.10;90.90;;;;;;5013658;28;20452;-69
2022/10/27 10:17:54;;;;;;;3.63;2.30;;;20.40;90.30;;;;;;5013918;28;20435;-69
2022/10/27 10:20:35;;;;;;;4.00;1.70;;;20.60;90.00;;;;;;5013551;28;20451;-69
2022/10/27 10:23:18;;;;;;;5.13;2.00;;;21.00;88.00;;;;;;5013736;28;20479;-69
2022/10/27 10:25:48;;;;;;;5.20;2.10;;;21.30;86.90;;;;;;5013995;28;20435;-69
2022/10/27 10:28:24;;;;;;;5.73;2.20;;;21.80;84.30;;;;;;5014380;28;20474;-69
2022/10/27 10:30:53;;;;;;;3.17;2.20;;;22.10;82.40;;;;;;5015534;28;20439;-69
2022/10/27 10:33:22;;;;;;;8.30;2.87;;;22.30;80.20;;;;;;5014527;28;20482;-69
2022/10/27 10:35:51;;;;;;;5.10;2.90;;;22.40;78.50;;;;;;5014897;28;20455;-69
2022/10/27 10:38:29;;;;;;;6.17;2.37;;;22.30;78.20;;;;;;5015776;28;20444;-70
2022/10/27 10:41:02;;;;;;;4.40;2.60;;;22.20;78.80;;;;;;5016870;28;20443;-70
2022/10/27 10:43:29;;;;;;;3.87;2.40;;;22.30;79.00;;;;;;5016415;28;20491;-70
2022/10/27 10:45:57;;;;;;;5.03;2.30;;;22.40;79.70;;;;;;5016698;28;20915;-70
2022/10/27 10:48:32;;;;;;;5.50;2.20;;;22.60;79.50;;;;;;5014713;28;20506;-69
2022/10/27 10:51:01;;;;;;;6.63;1.93;;;22.90;79.10;;;;;;5014909;28;20444;-69
2022/10/27 10:53:31;;;;;;;3.47;1.80;;;23.10;76.50;;;;;;5015210;28;20464;-69
2022/10/27 10:56:02;;;;;;;4.50;2.37;;;23.40;74.30;;;;;;5016310;28;20455;-70
2022/10/27 10:58:31;;;;;;;3.63;2.43;;;23.70;74.30;;;;;;5017386;28;20451;-67
2022/10/27 11:00:59;;;;;;;4.70;2.60;;;24.30;72.10;;;;;;5017374;28;20478;-67
2022/10/27 11:03:30;;;;;;;4.30;2.13;;;24.90;67.50;;;;;;5016729;28;20467;-67
2022/10/27 11:06:01;;;;;;;6.70;1.87;;;25.40;64.50;;;;;;5017249;28;20440;-67
2022/10/27 11:08:38;;;;;;;4.90;1.67;;;25.90;63.10;;;;;;5016611;28;20439;-67
2022/10/27 11:11:10;;;;;;;4.70;2.03;;;26.40;61.10;;;;;;5016754;28;20431;-66
2022/10/27 11:13:42;;;;;;;7.27;2.27;;;26.80;58.90;;;;;;5016762;28;20482;-67
2022/10/27 11:16:10;;;;;;;4.10;2.03;;;27.30;57.90;;;;;;5017087;28;20439;-67
2022/10/27 11:18:45;;;;;;;5.77;2.07;;;27.70;56.50;;;;;;5016619;28;20451;-67
2022/10/27 11:21:19;;;;;;;4.87;1.77;;;28.10;55.00;;;;;;5016678;28;20436;-67
2022/10/27 11:23:48;;;;;;;3.73;1.80;;;28.40;54.40;;;;;;5016535;28;20867;-67
2022/10/27 11:26:18;;;;;;;4.03;1.83;;;28.90;53.60;;;;;;5016555;28;20447;-67
2022/10/27 11:28:51;;;;;;;4.23;1.63;;;29.20;52.60;;;;;;5016599;28;20454;-67
2022/10/27 11:31:23;;;;;;;3.30;1.83;;;29.60;51.30;;;;;;5016435;28;20461;-67
2022/10/27 11:33:58;;;;;;;6.20;2.10;;;29.80;50.00;;;;;;5015824;28;21032;-67
2022/10/27 11:36:36;;;;;;;6.10;2.27;;;30.00;48.90;;;;;;5016315;28;20438;-68
2022/10/27 11:39:06;;;;;;;11.07;2.53;;;30.20;48.90;;;;;;5015914;28;20857;-67
2022/10/27 11:41:40;;;;;;;15.33;2.57;;;30.40;47.70;;;;;;5016189;28;20431;-67
2022/10/27 11:44:15;;;;;;;9.37;2.60;;;30.50;47.00;;;;;;5016152;28;20467;-67
2022/10/27 11:46:46;;;;;;;5.50;1.90;;;30.60;46.60;;;;;;5016326;28;20938;-68
2022/10/27 11:49:24;;;;;;;8.90;2.30;;;30.70;45.70;;;;;;5016136;28;20443;-67
2022/10/27 11:51:56;;;;;;;3.40;1.70;;;30.90;45.40;;;;;;5016004;28;20471;-67
2022/10/27 11:54:23;;;;;;;7.13;2.00;;;30.90;44.30;;;;;;5015726;28;20798;-67
2022/10/27 11:57:03;;;;;;;4.13;1.80;;;30.80;44.70;;;;;;5015916;28;20459;-68
2022/10/27 11:59:44;;;;;;;3.13;1.97;;;30.50;45.60;;;;;;5015862;28;20431;-67
2022/10/27 12:02:31;;;;;;;4.80;2.30;;;30.20;45.20;;;;;;5015640;28;20996;-67
2022/10/27 12:05:06;;;;;;;7.57;2.00;;;30.00;46.10;;;;;;5022210;28;20467;-66
2022/10/27 12:07:45;;;;;;;5.60;2.10;;;30.10;47.00;;;;;;5025157;28;20450;-66
2022/10/27 12:10:23;;;;;;;5.03;2.17;;;30.40;46.30;;;;;;5025525;28;20431;-66
2022/10/27 12:12:54;;;;;;;6.80;2.13;;;30.60;45.90;;;;;;5025613;28;20466;-66
2022/10/27 12:15:26;;;;;;;3.17;2.27;;;30.70;45.60;;;;;;5026356;28;20438;-66
2022/10/27 12:18:00;;;;;;;5.20;2.13;;;30.70;44.50;;;;;;5028174;28;20443;-66
2022/10/27 12:20:37;;;;;;;3.80;2.00;;;30.70;44.60;;;;;;5025298;28;20438;-66
2022/10/27 12:23:11;;;;;;;5.27;2.20;;;30.70;44.50;;;;;;5026091;28;20471;-66
2022/10/27 12:25:41;;;;;;;3.60;1.90;;;30.60;43.60;;;;;;5021127;28;20471;-66
2022/10/27 12:28:13;;;;;;;4.43;2.00;;;30.20;44.10;;;;;;5020238;28;20432;-66
2022/10/27 12:30:44;;;;;;;4.50;1.70;;;29.70;45.30;;;;;;5020209;28;20446;-66
2022/10/27 12:33:19;;;;;;;4.73;1.77;;;29.20;46.20;;;;;;5026811;28;20510;-66
2022/10/27 12:35:50;;;;;;;3.50;1.73;;;28.60;47.00;;;;;;5022390;28;20442;-66
2022/10/27 12:38:24;;;;;;;3.90;1.43;;;28.00;48.00;;;;;;5024095;28;20432;-67
2022/10/27 12:40:57;;;;;;;4.27;1.50;;;27.50;49.40;;;;;;5022817;28;20512;-66
2022/10/27 12:43:33;;;;;;;4.93;1.70;;;27.10;50.10;;;;;;5027184;28;20990;-66
2022/10/27 12:46:21;;;;;;;6.53;1.77;;;26.80;50.90;;;;;;5022089;28;20471;-66
2022/10/27 12:48:55;;;;;;;2.00;1.63;;;26.50;51.00;;;;;;5020575;28;20812;-66
2022/10/27 12:51:32;;;;;;;4.20;1.80;;;26.60;52.20;;;;;;5019377;28;20443;-66
2022/10/27 12:54:15;;;;;;;4.50;2.07;;;26.70;53.30;;;;;;5020308;28;20440;-66
2022/10/27 12:56:47;;;;;;;4.83;1.63;;;26.90;54.10;;;;;;5024727;28;20435;-66
2022/10/27 12:59:23;;;;;;;5.80;2.20;;;27.10;54.10;;;;;;5026318;28;20440;-67